Flugplatz Zell-Haidberg

Für EDNZ sind keine METAR/TAF Berichte vorhanden.
Es werden die Flugwettermeldungen vom Flugplatz Hof-Plauen in 17 km Entfernung angezeigt.

Prognose für EDQM

vom 23.02. um 00:00 UTC

Am 23.02. zwischen 00:00 UTC und 00:00 UTC

Wind 25 kt aus 250° in Böen 45 kt

Sichtweite 10 km oder mehr

aufgebrochene Bewölkung in 1500 ft


Am 23.02. zwischen 00:00 UTC und 00:00 UTC zeitweise

Sichtweite 3500 m

Regen

aufgebrochene Bewölkung in 800 ft


Am 23.02. zwischen 00:00 und 00:00 UTC übergehend zu

Wind 15 kt aus 300° in Böen 30 kt

Sichtweite 10 km oder mehr

aufgebrochene Bewölkung in 1500 ft


Zwischen 00:00 und 00:00 UTC übergehend zu

Wind 8 kt aus 300°

Sichtweite 10 km oder mehr

aufgebrochene Bewölkung in 1500 ft

TAF EDQM 231700Z 2318/2403 25025G45KT 9999 BKN015 TEMPO 2318/2321 3500 RA BKN008 BECMG 2320/2322 30015G30KT BECMG 2400/2403 30008KT
Impressum